sensor_id;sensor_type;location;lat;lon;timestamp;temperature;humidity
12089;DHT22;6107;49.078;8.578;2022-08-24T00:01:15;18.40;80.70
12089;DHT22;6107;49.078;8.578;2022-08-24T00:03:42;18.40;80.10
12089;DHT22;6107;49.078;8.578;2022-08-24T00:06:12;18.30;81.30
12089;DHT22;6107;49.078;8.578;2022-08-24T00:08:38;18.40;81.20
12089;DHT22;6107;49.078;8.578;2022-08-24T00:11:04;18.30;81.90
12089;DHT22;6107;49.078;8.578;2022-08-24T00:13:31;18.10;82.70
12089;DHT22;6107;49.078;8.578;2022-08-24T00:15:57;18.00;83.40
12089;DHT22;6107;49.078;8.578;2022-08-24T00:18:23;18.00;83.70
12089;DHT22;6107;49.078;8.578;2022-08-24T00:20:49;17.90;83.80
12089;DHT22;6107;49.078;8.578;2022-08-24T00:23:15;17.80;84.30
12089;DHT22;6107;49.078;8.578;2022-08-24T00:25:41;17.90;84.30
12089;DHT22;6107;49.078;8.578;2022-08-24T00:28:07;17.80;84.60
12089;DHT22;6107;49.078;8.578;2022-08-24T00:30:33;17.50;84.70
12089;DHT22;6107;49.078;8.578;2022-08-24T00:32:59;17.30;86.20
12089;DHT22;6107;49.078;8.578;2022-08-24T00:35:25;17.40;86.70
12089;DHT22;6107;49.078;8.578;2022-08-24T00:37:52;17.40;86.10
12089;DHT22;6107;49.078;8.578;2022-08-24T00:40:25;17.20;86.60
12089;DHT22;6107;49.078;8.578;2022-08-24T00:42:51;17.30;87.20
12089;DHT22;6107;49.078;8.578;2022-08-24T00:45:18;17.40;87.00
12089;DHT22;6107;49.078;8.578;2022-08-24T00:47:48;17.40;87.00
12089;DHT22;6107;49.078;8.578;2022-08-24T00:50:33;17.60;86.70
12089;DHT22;6107;49.078;8.578;2022-08-24T00:53:05;17.50;86.80
12089;DHT22;6107;49.078;8.578;2022-08-24T00:55:40;17.60;86.60
12089;DHT22;6107;49.078;8.578;2022-08-24T00:58:12;17.70;86.30
12089;DHT22;6107;49.078;8.578;2022-08-24T01:00:45;17.30;86.80
12089;DHT22;6107;49.078;8.578;2022-08-24T01:03:12;16.80;88.90
12089;DHT22;6107;49.078;8.578;2022-08-24T01:05:39;16.90;89.40
12089;DHT22;6107;49.078;8.578;2022-08-24T01:08:09;16.90;89.60
12089;DHT22;6107;49.078;8.578;2022-08-24T01:10:38;16.60;90.00
12089;DHT22;6107;49.078;8.578;2022-08-24T01:13:07;16.20;90.40
12089;DHT22;6107;49.078;8.578;2022-08-24T01:15:36;16.20;90.90
12089;DHT22;6107;49.078;8.578;2022-08-24T01:18:04;16.40;90.60
12089;DHT22;6107;49.078;8.578;2022-08-24T01:20:56;16.80;90.30
12089;DHT22;6107;49.078;8.578;2022-08-24T01:25:54;17.30;87.20
12089;DHT22;6107;49.078;8.578;2022-08-24T01:28:20;16.80;88.70
12089;DHT22;6107;49.078;8.578;2022-08-24T01:30:46;16.90;89.50
12089;DHT22;6107;49.078;8.578;2022-08-24T01:33:24;17.10;88.70
12089;DHT22;6107;49.078;8.578;2022-08-24T01:35:57;17.30;88.40
12089;DHT22;6107;49.078;8.578;2022-08-24T01:38:24;17.40;87.60
12089;DHT22;6107;49.078;8.578;2022-08-24T01:40:57;17.50;87.40
12089;DHT22;6107;49.078;8.578;2022-08-24T01:43:23;17.50;86.80
12089;DHT22;6107;49.078;8.578;2022-08-24T01:45:49;17.40;86.60
12089;DHT22;6107;49.078;8.578;2022-08-24T01:48:15;17.20;86.90
12089;DHT22;6107;49.078;8.578;2022-08-24T01:50:41;17.20;87.70
12089;DHT22;6107;49.078;8.578;2022-08-24T01:53:07;17.20;88.20
12089;DHT22;6107;49.078;8.578;2022-08-24T01:55:33;17.40;87.90
12089;DHT22;6107;49.078;8.578;2022-08-24T01:57:59;17.50;87.60
12089;DHT22;6107;49.078;8.578;2022-08-24T02:00:25;17.20;87.70
12089;DHT22;6107;49.078;8.578;2022-08-24T02:02:51;16.90;90.00
12089;DHT22;6107;49.078;8.578;2022-08-24T02:05:16;17.10;89.90
12089;DHT22;6107;49.078;8.578;2022-08-24T02:07:42;17.20;89.00
12089;DHT22;6107;49.078;8.578;2022-08-24T02:10:09;17.30;88.80
12089;DHT22;6107;49.078;8.578;2022-08-24T02:12:37;17.40;88.80
12089;DHT22;6107;49.078;8.578;2022-08-24T02:15:05;17.10;88.50
12089;DHT22;6107;49.078;8.578;2022-08-24T02:17:32;17.10;89.40
12089;DHT22;6107;49.078;8.578;2022-08-24T02:19:59;17.20;89.00
12089;DHT22;6107;49.078;8.578;2022-08-24T02:22:24;16.80;90.10
12089;DHT22;6107;49.078;8.578;2022-08-24T02:24:50;16.30;91.20
12089;DHT22;6107;49.078;8.578;2022-08-24T02:27:15;16.40;91.60
12089;DHT22;6107;49.078;8.578;2022-08-24T02:29:41;16.70;90.90
12089;DHT22;6107;49.078;8.578;2022-08-24T02:32:08;16.80;91.00
12089;DHT22;6107;49.078;8.578;2022-08-24T02:34:33;16.50;91.00
12089;DHT22;6107;49.078;8.578;2022-08-24T02:36:59;16.50;91.30
12089;DHT22;6107;49.078;8.578;2022-08-24T02:39:25;16.80;90.70
12089;DHT22;6107;49.078;8.578;2022-08-24T02:41:51;16.90;90.50
12089;DHT22;6107;49.078;8.578;2022-08-24T02:44:17;16.70;90.90
12089;DHT22;6107;49.078;8.578;2022-08-24T02:46:42;16.80;90.70
12089;DHT22;6107;49.078;8.578;2022-08-24T02:49:08;16.80;90.80
12089;DHT22;6107;49.078;8.578;2022-08-24T02:51:34;16.90;90.60
12089;DHT22;6107;49.078;8.578;2022-08-24T02:54:02;17.00;90.60
12089;DHT22;6107;49.078;8.578;2022-08-24T02:56:28;16.90;90.70
12089;DHT22;6107;49.078;8.578;2022-08-24T02:58:55;16.80;91.00
12089;DHT22;6107;49.078;8.578;2022-08-24T03:01:21;16.70;91.30
12089;DHT22;6107;49.078;8.578;2022-08-24T03:03:47;16.80;91.20
12089;DHT22;6107;49.078;8.578;2022-08-24T03:06:12;16.80;91.00
12089;DHT22;6107;49.078;8.578;2022-08-24T03:08:38;16.90;90.80
12089;DHT22;6107;49.078;8.578;2022-08-24T03:11:05;17.00;91.00
12089;DHT22;6107;49.078;8.578;2022-08-24T03:13:33;17.00;91.00
12089;DHT22;6107;49.078;8.578;2022-08-24T03:15:59;17.10;90.60
12089;DHT22;6107;49.078;8.578;2022-08-24T03:18:26;17.10;90.60
12089;DHT22;6107;49.078;8.578;2022-08-24T03:20:53;16.90;90.80
12089;DHT22;6107;49.078;8.578;2022-08-24T03:23:19;16.70;91.70
12089;DHT22;6107;49.078;8.578;2022-08-24T03:25:45;16.60;91.90
12089;DHT22;6107;49.078;8.578;2022-08-24T03:28:10;16.50;92.30
12089;DHT22;6107;49.078;8.578;2022-08-24T03:30:37;16.60;92.30
12089;DHT22;6107;49.078;8.578;2022-08-24T03:33:04;16.80;92.20
12089;DHT22;6107;49.078;8.578;2022-08-24T03:35:29;16.80;91.80
12089;DHT22;6107;49.078;8.578;2022-08-24T03:37:55;16.90;91.80
12089;DHT22;6107;49.078;8.578;2022-08-24T03:40:21;16.80;91.80
12089;DHT22;6107;49.078;8.578;2022-08-24T03:42:48;16.70;92.00
12089;DHT22;6107;49.078;8.578;2022-08-24T03:45:14;16.70;92.20
12089;DHT22;6107;49.078;8.578;2022-08-24T03:47:40;16.50;92.40
12089;DHT22;6107;49.078;8.578;2022-08-24T03:50:06;16.60;92.50
12089;DHT22;6107;49.078;8.578;2022-08-24T03:52:32;16.70;92.20
12089;DHT22;6107;49.078;8.578;2022-08-24T03:55:00;16.60;92.20
12089;DHT22;6107;49.078;8.578;2022-08-24T03:57:26;16.40;92.40
12089;DHT22;6107;49.078;8.578;2022-08-24T03:59:51;16.30;93.00
12089;DHT22;6107;49.078;8.578;2022-08-24T04:02:17;16.40;93.00
12089;DHT22;6107;49.078;8.578;2022-08-24T04:04:43;16.30;93.10
12089;DHT22;6107;49.078;8.578;2022-08-24T04:07:08;16.50;92.90
12089;DHT22;6107;49.078;8.578;2022-08-24T04:09:34;16.60;92.60
12089;DHT22;6107;49.078;8.578;2022-08-24T04:11:59;16.70;92.30
12089;DHT22;6107;49.078;8.578;2022-08-24T04:14:25;16.60;92.30
12089;DHT22;6107;49.078;8.578;2022-08-24T04:16:51;16.50;92.50
12089;DHT22;6107;49.078;8.578;2022-08-24T04:19:16;16.60;92.40
12089;DHT22;6107;49.078;8.578;2022-08-24T04:21:42;16.60;92.50
12089;DHT22;6107;49.078;8.578;2022-08-24T04:24:09;16.60;92.50
12089;DHT22;6107;49.078;8.578;2022-08-24T04:26:37;16.40;92.70
12089;DHT22;6107;49.078;8.578;2022-08-24T04:29:04;16.50;92.70
12089;DHT22;6107;49.078;8.578;2022-08-24T04:31:30;16.60;92.40
12089;DHT22;6107;49.078;8.578;2022-08-24T04:33:56;16.60;92.50
12089;DHT22;6107;49.078;8.578;2022-08-24T04:36:22;16.50;92.40
12089;DHT22;6107;49.078;8.578;2022-08-24T04:38:48;16.30;92.70
12089;DHT22;6107;49.078;8.578;2022-08-24T04:41:15;16.20;93.10
12089;DHT22;6107;49.078;8.578;2022-08-24T04:43:45;16.00;93.30
12089;DHT22;6107;49.078;8.578;2022-08-24T04:46:13;15.90;93.90
12089;DHT22;6107;49.078;8.578;2022-08-24T04:48:40;15.80;93.90
12089;DHT22;6107;49.078;8.578;2022-08-24T04:51:08;15.60;94.60
12089;DHT22;6107;49.078;8.578;2022-08-24T04:53:34;15.60;94.80
12089;DHT22;6107;49.078;8.578;2022-08-24T04:56:00;15.60;95.00
12089;DHT22;6107;49.078;8.578;2022-08-24T04:58:27;15.90;94.70
12089;DHT22;6107;49.078;8.578;2022-08-24T05:00:53;16.10;94.40
12089;DHT22;6107;49.078;8.578;2022-08-24T05:03:19;16.30;93.90
12089;DHT22;6107;49.078;8.578;2022-08-24T05:05:46;16.30;94.00
12089;DHT22;6107;49.078;8.578;2022-08-24T05:08:14;16.30;93.90
12089;DHT22;6107;49.078;8.578;2022-08-24T05:10:42;16.30;93.90
12089;DHT22;6107;49.078;8.578;2022-08-24T05:13:08;16.50;93.90
12089;DHT22;6107;49.078;8.578;2022-08-24T05:15:34;16.50;93.70
12089;DHT22;6107;49.078;8.578;2022-08-24T05:18:01;16.60;93.60
12089;DHT22;6107;49.078;8.578;2022-08-24T05:20:27;16.70;93.60
12089;DHT22;6107;49.078;8.578;2022-08-24T05:22:53;16.80;93.30
12089;DHT22;6107;49.078;8.578;2022-08-24T05:25:19;16.90;93.60
12089;DHT22;6107;49.078;8.578;2022-08-24T05:27:45;17.00;93.60
12089;DHT22;6107;49.078;8.578;2022-08-24T05:30:12;17.10;92.80
12089;DHT22;6107;49.078;8.578;2022-08-24T05:32:38;17.20;92.90
12089;DHT22;6107;49.078;8.578;2022-08-24T05:35:05;17.30;92.90
12089;DHT22;6107;49.078;8.578;2022-08-24T05:37:33;17.30;92.30
12089;DHT22;6107;49.078;8.578;2022-08-24T05:40:01;17.50;92.10
12089;DHT22;6107;49.078;8.578;2022-08-24T05:42:27;17.70;92.30
12089;DHT22;6107;49.078;8.578;2022-08-24T05:44:52;17.80;92.20
12089;DHT22;6107;49.078;8.578;2022-08-24T05:47:18;18.00;92.10
12089;DHT22;6107;49.078;8.578;2022-08-24T05:49:43;18.00;92.20
12089;DHT22;6107;49.078;8.578;2022-08-24T05:52:10;18.20;91.60
12089;DHT22;6107;49.078;8.578;2022-08-24T05:54:35;18.00;91.80
12089;DHT22;6107;49.078;8.578;2022-08-24T05:57:01;18.00;92.40
12089;DHT22;6107;49.078;8.578;2022-08-24T05:59:29;18.10;91.90
12089;DHT22;6107;49.078;8.578;2022-08-24T06:01:55;18.10;91.70
12089;DHT22;6107;49.078;8.578;2022-08-24T06:04:20;18.10;92.00
12089;DHT22;6107;49.078;8.578;2022-08-24T06:06:47;18.10;92.30
12089;DHT22;6107;49.078;8.578;2022-08-24T06:09:12;18.10;91.90
12089;DHT22;6107;49.078;8.578;2022-08-24T06:11:39;18.10;91.70
12089;DHT22;6107;49.078;8.578;2022-08-24T06:14:13;18.10;91.60
12089;DHT22;6107;49.078;8.578;2022-08-24T06:16:42;18.10;91.60
12089;DHT22;6107;49.078;8.578;2022-08-24T06:19:09;18.20;91.20
12089;DHT22;6107;49.078;8.578;2022-08-24T06:21:34;18.30;91.00
12089;DHT22;6107;49.078;8.578;2022-08-24T06:24:00;18.40;91.60
12089;DHT22;6107;49.078;8.578;2022-08-24T06:26:27;18.40;91.50
12089;DHT22;6107;49.078;8.578;2022-08-24T06:29:11;18.40;90.80
12089;DHT22;6107;49.078;8.578;2022-08-24T06:31:39;18.50;91.10
12089;DHT22;6107;49.078;8.578;2022-08-24T06:34:06;18.50;90.70
12089;DHT22;6107;49.078;8.578;2022-08-24T06:36:31;18.60;91.20
12089;DHT22;6107;49.078;8.578;2022-08-24T06:38:57;18.70;90.80
12089;DHT22;6107;49.078;8.578;2022-08-24T06:41:22;18.70;90.70
12089;DHT22;6107;49.078;8.578;2022-08-24T06:43:50;18.80;90.40
12089;DHT22;6107;49.078;8.578;2022-08-24T06:46:15;18.80;90.20
12089;DHT22;6107;49.078;8.578;2022-08-24T06:48:41;18.90;90.40
12089;DHT22;6107;49.078;8.578;2022-08-24T06:51:11;19.00;90.10
12089;DHT22;6107;49.078;8.578;2022-08-24T06:53:38;19.10;89.50
12089;DHT22;6107;49.078;8.578;2022-08-24T06:56:04;19.20;89.40
12089;DHT22;6107;49.078;8.578;2022-08-24T06:58:29;19.40;89.30
12089;DHT22;6107;49.078;8.578;2022-08-24T07:00:55;19.60;88.40
12089;DHT22;6107;49.078;8.578;2022-08-24T07:03:22;19.70;87.90
12089;DHT22;6107;49.078;8.578;2022-08-24T07:05:50;19.80;88.20
12089;DHT22;6107;49.078;8.578;2022-08-24T07:08:16;19.90;86.00
12089;DHT22;6107;49.078;8.578;2022-08-24T07:10:42;19.90;86.20
12089;DHT22;6107;49.078;8.578;2022-08-24T07:13:07;20.00;85.20
12089;DHT22;6107;49.078;8.578;2022-08-24T07:15:34;20.10;84.00
12089;DHT22;6107;49.078;8.578;2022-08-24T07:18:00;20.30;84.90
12089;DHT22;6107;49.078;8.578;2022-08-24T07:20:29;20.40;83.00
12089;DHT22;6107;49.078;8.578;2022-08-24T07:22:54;20.40;83.00
12089;DHT22;6107;49.078;8.578;2022-08-24T07:35:05;20.50;83.50
12089;DHT22;6107;49.078;8.578;2022-08-24T07:37:32;21.10;83.80
12089;DHT22;6107;49.078;8.578;2022-08-24T07:39:57;21.20;82.20
12089;DHT22;6107;49.078;8.578;2022-08-24T07:42:23;21.40;82.20
12089;DHT22;6107;49.078;8.578;2022-08-24T07:44:49;21.50;81.60
12089;DHT22;6107;49.078;8.578;2022-08-24T07:47:15;21.60;81.90
12089;DHT22;6107;49.078;8.578;2022-08-24T07:52:07;21.80;80.90
12089;DHT22;6107;49.078;8.578;2022-08-24T07:54:34;22.10;79.20
12089;DHT22;6107;49.078;8.578;2022-08-24T07:57:00;22.10;80.90
12089;DHT22;6107;49.078;8.578;2022-08-24T07:59:28;22.30;78.70
12089;DHT22;6107;49.078;8.578;2022-08-24T08:01:53;22.40;77.20
12089;DHT22;6107;49.078;8.578;2022-08-24T08:06:48;22.50;78.40
12089;DHT22;6107;49.078;8.578;2022-08-24T08:14:05;23.30;80.40
12089;DHT22;6107;49.078;8.578;2022-08-24T08:16:31;23.40;76.20
12089;DHT22;6107;49.078;8.578;2022-08-24T08:18:57;23.50;75.90
12089;DHT22;6107;49.078;8.578;2022-08-24T08:24:08;23.90;72.80
12089;DHT22;6107;49.078;8.578;2022-08-24T08:26:41;24.10;72.50
12089;DHT22;6107;49.078;8.578;2022-08-24T08:29:08;24.30;70.70
12089;DHT22;6107;49.078;8.578;2022-08-24T08:31:36;24.50;70.80
12089;DHT22;6107;49.078;8.578;2022-08-24T08:34:02;24.60;70.10
12089;DHT22;6107;49.078;8.578;2022-08-24T08:36:28;24.80;68.50
12089;DHT22;6107;49.078;8.578;2022-08-24T08:38:54;25.00;67.70
12089;DHT22;6107;49.078;8.578;2022-08-24T08:44:29;25.20;67.70
12089;DHT22;6107;49.078;8.578;2022-08-24T08:55:36;25.90;60.30
12089;DHT22;6107;49.078;8.578;2022-08-24T08:58:15;26.20;60.20
12089;DHT22;6107;49.078;8.578;2022-08-24T09:01:04;26.40;58.40
12089;DHT22;6107;49.078;8.578;2022-08-24T09:06:34;26.90;59.40
12089;DHT22;6107;49.078;8.578;2022-08-24T09:09:19;27.20;63.30
12089;DHT22;6107;49.078;8.578;2022-08-24T09:15:28;27.60;57.10
12089;DHT22;6107;49.078;8.578;2022-08-24T09:21:01;27.70;54.50
12089;DHT22;6107;49.078;8.578;2022-08-24T09:26:18;28.00;54.80
12089;DHT22;6107;49.078;8.578;2022-08-24T09:29:11;28.20;54.00
12089;DHT22;6107;49.078;8.578;2022-08-24T09:31:47;28.20;54.50
12089;DHT22;6107;49.078;8.578;2022-08-24T09:47:50;29.10;52.50
12089;DHT22;6107;49.078;8.578;2022-08-24T09:50:43;29.20;50.70
12089;DHT22;6107;49.078;8.578;2022-08-24T09:59:14;29.60;49.60
12089;DHT22;6107;49.078;8.578;2022-08-24T10:07:21;30.10;47.50
12089;DHT22;6107;49.078;8.578;2022-08-24T10:13:06;30.40;48.10
12089;DHT22;6107;49.078;8.578;2022-08-24T10:23:35;31.00;45.70
12089;DHT22;6107;49.078;8.578;2022-08-24T10:26:20;31.00;44.40
12089;DHT22;6107;49.078;8.578;2022-08-24T10:31:39;31.30;45.00
12089;DHT22;6107;49.078;8.578;2022-08-24T10:51:37;32.00;44.50
12089;DHT22;6107;49.078;8.578;2022-08-24T10:54:10;32.30;44.60
12089;DHT22;6107;49.078;8.578;2022-08-24T10:59:17;32.60;43.10
12089;DHT22;6107;49.078;8.578;2022-08-24T11:02:08;32.60;42.50
12089;DHT22;6107;49.078;8.578;2022-08-24T11:04:34;32.30;42.30
12089;DHT22;6107;49.078;8.578;2022-08-24T11:07:06;31.90;43.10
12089;DHT22;6107;49.078;8.578;2022-08-24T11:09:48;32.40;43.50
12089;DHT22;6107;49.078;8.578;2022-08-24T11:12:26;32.70;43.40
12089;DHT22;6107;49.078;8.578;2022-08-24T11:14:54;33.00;43.10
12089;DHT22;6107;49.078;8.578;2022-08-24T11:17:22;33.30;42.20
12089;DHT22;6107;49.078;8.578;2022-08-24T11:19:48;33.30;40.20
12089;DHT22;6107;49.078;8.578;2022-08-24T11:22:56;33.40;41.10
12089;DHT22;6107;49.078;8.578;2022-08-24T11:25:30;33.50;41.70
12089;DHT22;6107;49.078;8.578;2022-08-24T11:30:41;33.70;41.30
12089;DHT22;6107;49.078;8.578;2022-08-24T11:35:53;34.10;40.10
12089;DHT22;6107;49.078;8.578;2022-08-24T11:38:22;34.20;41.10
12089;DHT22;6107;49.078;8.578;2022-08-24T11:40:54;34.10;40.40
12089;DHT22;6107;49.078;8.578;2022-08-24T11:48:45;33.60;40.30
12089;DHT22;6107;49.078;8.578;2022-08-24T11:53:58;34.20;40.60
12089;DHT22;6107;49.078;8.578;2022-08-24T11:56:30;34.30;39.20
12089;DHT22;6107;49.078;8.578;2022-08-24T12:01:54;34.90;40.40
12089;DHT22;6107;49.078;8.578;2022-08-24T12:13:34;35.00;38.60
12089;DHT22;6107;49.078;8.578;2022-08-24T12:16:10;35.20;39.60
12089;DHT22;6107;49.078;8.578;2022-08-24T12:18:54;35.20;37.40
12089;DHT22;6107;49.078;8.578;2022-08-24T12:21:25;35.10;39.60
12089;DHT22;6107;49.078;8.578;2022-08-24T12:23:59;35.00;39.00
12089;DHT22;6107;49.078;8.578;2022-08-24T12:26:46;35.10;39.20
12089;DHT22;6107;49.078;8.578;2022-08-24T12:29:26;35.00;37.60
12089;DHT22;6107;49.078;8.578;2022-08-24T12:32:02;35.10;38.60
12089;DHT22;6107;49.078;8.578;2022-08-24T12:45:02;35.50;35.80
12089;DHT22;6107;49.078;8.578;2022-08-24T12:47:53;35.60;36.50
12089;DHT22;6107;49.078;8.578;2022-08-24T12:53:11;35.90;37.00
12089;DHT22;6107;49.078;8.578;2022-08-24T13:01:05;36.70;34.50
12089;DHT22;6107;49.078;8.578;2022-08-24T13:06:04;36.60;35.10
12089;DHT22;6107;49.078;8.578;2022-08-24T13:08:46;36.60;34.60
12089;DHT22;6107;49.078;8.578;2022-08-24T13:17:05;36.70;33.50
12089;DHT22;6107;49.078;8.578;2022-08-24T13:19:36;36.60;33.30
12089;DHT22;6107;49.078;8.578;2022-08-24T13:30:07;36.90;33.30
12089;DHT22;6107;49.078;8.578;2022-08-24T13:32:48;36.40;33.00
12089;DHT22;6107;49.078;8.578;2022-08-24T13:41:13;36.20;33.10
12089;DHT22;6107;49.078;8.578;2022-08-24T13:46:26;37.10;33.40
12089;DHT22;6107;49.078;8.578;2022-08-24T13:51:56;36.70;33.90
12089;DHT22;6107;49.078;8.578;2022-08-24T13:54:40;36.50;33.40
12089;DHT22;6107;49.078;8.578;2022-08-24T13:57:33;36.80;32.70
12089;DHT22;6107;49.078;8.578;2022-08-24T14:00:53;36.90;33.70
12089;DHT22;6107;49.078;8.578;2022-08-24T14:03:15;37.20;32.30
12089;DHT22;6107;49.078;8.578;2022-08-24T14:05:50;37.30;32.60
12089;DHT22;6107;49.078;8.578;2022-08-24T14:14:24;37.30;33.20
12089;DHT22;6107;49.078;8.578;2022-08-24T14:17:06;36.90;31.90
12089;DHT22;6107;49.078;8.578;2022-08-24T14:19:56;36.50;32.60
12089;DHT22;6107;49.078;8.578;2022-08-24T14:27:40;37.00;33.10
12089;DHT22;6107;49.078;8.578;2022-08-24T14:44:06;36.90;32.80
12089;DHT22;6107;49.078;8.578;2022-08-24T14:46:45;37.60;32.20
12089;DHT22;6107;49.078;8.578;2022-08-24T14:49:41;37.80;33.40
12089;DHT22;6107;49.078;8.578;2022-08-24T14:55:14;37.10;31.10
12089;DHT22;6107;49.078;8.578;2022-08-24T14:58:10;37.40;31.10
12089;DHT22;6107;49.078;8.578;2022-08-24T15:03:50;38.10;33.30
12089;DHT22;6107;49.078;8.578;2022-08-24T15:06:26;37.80;32.40
12089;DHT22;6107;49.078;8.578;2022-08-24T15:09:05;37.70;31.70
12089;DHT22;6107;49.078;8.578;2022-08-24T15:11:31;37.50;31.40
12089;DHT22;6107;49.078;8.578;2022-08-24T15:14:04;36.90;31.90
12089;DHT22;6107;49.078;8.578;2022-08-24T15:16:44;36.40;32.60
12089;DHT22;6107;49.078;8.578;2022-08-24T15:19:34;36.30;34.20
12089;DHT22;6107;49.078;8.578;2022-08-24T15:22:08;36.80;32.60
12089;DHT22;6107;49.078;8.578;2022-08-24T15:27:45;36.90;32.10
12089;DHT22;6107;49.078;8.578;2022-08-24T15:30:34;37.20;33.20
12089;DHT22;6107;49.078;8.578;2022-08-24T15:35:36;36.70;31.60
12089;DHT22;6107;49.078;8.578;2022-08-24T15:40:49;36.60;31.90
12089;DHT22;6107;49.078;8.578;2022-08-24T15:43:16;36.70;32.20
12089;DHT22;6107;49.078;8.578;2022-08-24T15:45:47;36.10;32.40
12089;DHT22;6107;49.078;8.578;2022-08-24T15:48:17;36.50;33.50
12089;DHT22;6107;49.078;8.578;2022-08-24T15:50:45;36.10;31.90
12089;DHT22;6107;49.078;8.578;2022-08-24T15:53:39;35.80;32.80
12089;DHT22;6107;49.078;8.578;2022-08-24T15:56:25;36.10;32.80
12089;DHT22;6107;49.078;8.578;2022-08-24T15:58:52;36.50;33.00
12089;DHT22;6107;49.078;8.578;2022-08-24T16:01:23;36.40;32.70
12089;DHT22;6107;49.078;8.578;2022-08-24T16:06:56;35.60;32.80
12089;DHT22;6107;49.078;8.578;2022-08-24T16:15:03;35.70;34.10
12089;DHT22;6107;49.078;8.578;2022-08-24T16:20:05;35.80;32.60
12089;DHT22;6107;49.078;8.578;2022-08-24T16:22:38;36.00;32.80
12089;DHT22;6107;49.078;8.578;2022-08-24T16:25:10;36.10;32.50
12089;DHT22;6107;49.078;8.578;2022-08-24T16:36:05;34.90;33.90
12089;DHT22;6107;49.078;8.578;2022-08-24T16:38:33;35.20;33.40
12089;DHT22;6107;49.078;8.578;2022-08-24T16:41:00;34.80;33.00
12089;DHT22;6107;49.078;8.578;2022-08-24T16:43:26;34.80;34.00
12089;DHT22;6107;49.078;8.578;2022-08-24T16:45:53;34.50;33.30
12089;DHT22;6107;49.078;8.578;2022-08-24T16:48:18;34.60;33.60
12089;DHT22;6107;49.078;8.578;2022-08-24T16:50:45;34.80;33.70
12089;DHT22;6107;49.078;8.578;2022-08-24T16:53:10;34.80;34.00
12089;DHT22;6107;49.078;8.578;2022-08-24T16:55:36;34.70;33.10
12089;DHT22;6107;49.078;8.578;2022-08-24T16:58:03;34.50;34.20
12089;DHT22;6107;49.078;8.578;2022-08-24T17:00:29;34.70;34.90
12089;DHT22;6107;49.078;8.578;2022-08-24T17:02:54;34.70;34.20
12089;DHT22;6107;49.078;8.578;2022-08-24T17:05:20;34.30;34.00
12089;DHT22;6107;49.078;8.578;2022-08-24T17:07:46;33.70;33.90
12089;DHT22;6107;49.078;8.578;2022-08-24T17:10:14;33.50;34.70
12089;DHT22;6107;49.078;8.578;2022-08-24T17:12:40;33.10;34.90
12089;DHT22;6107;49.078;8.578;2022-08-24T17:15:08;32.90;34.60
12089;DHT22;6107;49.078;8.578;2022-08-24T17:17:34;32.50;35.20
12089;DHT22;6107;49.078;8.578;2022-08-24T17:20:00;32.70;36.00
12089;DHT22;6107;49.078;8.578;2022-08-24T17:22:26;32.70;35.80
12089;DHT22;6107;49.078;8.578;2022-08-24T17:24:52;32.60;35.40
12089;DHT22;6107;49.078;8.578;2022-08-24T17:27:20;32.40;35.50
12089;DHT22;6107;49.078;8.578;2022-08-24T17:29:48;32.10;36.40
12089;DHT22;6107;49.078;8.578;2022-08-24T17:32:13;32.30;36.40
12089;DHT22;6107;49.078;8.578;2022-08-24T17:34:40;31.80;35.70
12089;DHT22;6107;49.078;8.578;2022-08-24T17:37:06;31.90;36.50
12089;DHT22;6107;49.078;8.578;2022-08-24T17:39:32;31.70;36.30
12089;DHT22;6107;49.078;8.578;2022-08-24T17:41:58;31.70;36.30
12089;DHT22;6107;49.078;8.578;2022-08-24T17:44:28;31.60;36.60
12089;DHT22;6107;49.078;8.578;2022-08-24T17:46:56;31.60;37.20
12089;DHT22;6107;49.078;8.578;2022-08-24T17:49:23;31.60;37.40
12089;DHT22;6107;49.078;8.578;2022-08-24T17:51:48;31.60;37.90
12089;DHT22;6107;49.078;8.578;2022-08-24T17:54:15;31.40;37.90
12089;DHT22;6107;49.078;8.578;2022-08-24T17:56:41;31.40;38.80
12089;DHT22;6107;49.078;8.578;2022-08-24T17:59:10;30.70;39.30
12089;DHT22;6107;49.078;8.578;2022-08-24T18:01:55;30.10;41.20
12089;DHT22;6107;49.078;8.578;2022-08-24T18:04:23;29.80;42.60
12089;DHT22;6107;49.078;8.578;2022-08-24T18:07:00;29.40;43.10
12089;DHT22;6107;49.078;8.578;2022-08-24T18:09:31;28.80;44.30
12089;DHT22;6107;49.078;8.578;2022-08-24T18:11:57;28.60;44.70
12089;DHT22;6107;49.078;8.578;2022-08-24T18:14:27;28.10;45.40
12089;DHT22;6107;49.078;8.578;2022-08-24T18:16:54;27.50;47.00
12089;DHT22;6107;49.078;8.578;2022-08-24T18:19:21;27.20;47.30
12089;DHT22;6107;49.078;8.578;2022-08-24T18:21:47;26.90;47.70
12089;DHT22;6107;49.078;8.578;2022-08-24T18:24:12;26.60;48.50
12089;DHT22;6107;49.078;8.578;2022-08-24T18:26:38;26.60;48.90
12089;DHT22;6107;49.078;8.578;2022-08-24T18:29:16;26.40;49.20
12089;DHT22;6107;49.078;8.578;2022-08-24T18:31:43;26.30;49.40
12089;DHT22;6107;49.078;8.578;2022-08-24T18:34:11;24.70;52.00
12089;DHT22;6107;49.078;8.578;2022-08-24T18:36:37;25.80;51.00
12089;DHT22;6107;49.078;8.578;2022-08-24T18:39:03;25.90;53.90
12089;DHT22;6107;49.078;8.578;2022-08-24T18:41:35;26.40;56.10
12089;DHT22;6107;49.078;8.578;2022-08-24T18:44:04;26.70;52.70
12089;DHT22;6107;49.078;8.578;2022-08-24T18:46:30;26.30;51.80
12089;DHT22;6107;49.078;8.578;2022-08-24T18:48:57;25.60;53.70
12089;DHT22;6107;49.078;8.578;2022-08-24T18:51:22;25.20;52.10
12089;DHT22;6107;49.078;8.578;2022-08-24T18:53:49;25.10;53.10
12089;DHT22;6107;49.078;8.578;2022-08-24T18:56:17;25.10;53.20
12089;DHT22;6107;49.078;8.578;2022-08-24T18:58:42;25.00;53.20
12089;DHT22;6107;49.078;8.578;2022-08-24T19:01:08;24.90;53.50
12089;DHT22;6107;49.078;8.578;2022-08-24T19:03:34;24.80;53.80
12089;DHT22;6107;49.078;8.578;2022-08-24T19:06:00;24.90;53.60
12089;DHT22;6107;49.078;8.578;2022-08-24T19:08:25;24.80;53.90
12089;DHT22;6107;49.078;8.578;2022-08-24T19:10:51;24.70;54.40
12089;DHT22;6107;49.078;8.578;2022-08-24T19:13:17;24.60;54.70
12089;DHT22;6107;49.078;8.578;2022-08-24T19:15:47;24.30;55.50
12089;DHT22;6107;49.078;8.578;2022-08-24T19:18:17;24.30;55.50
12089;DHT22;6107;49.078;8.578;2022-08-24T19:20:45;24.50;55.20
12089;DHT22;6107;49.078;8.578;2022-08-24T19:23:19;24.60;55.30
12089;DHT22;6107;49.078;8.578;2022-08-24T19:25:47;24.80;55.40
12089;DHT22;6107;49.078;8.578;2022-08-24T19:28:12;24.80;55.20
12089;DHT22;6107;49.078;8.578;2022-08-24T19:30:39;24.80;55.20
12089;DHT22;6107;49.078;8.578;2022-08-24T19:33:06;24.50;55.20
12089;DHT22;6107;49.078;8.578;2022-08-24T19:35:33;24.00;56.40
12089;DHT22;6107;49.078;8.578;2022-08-24T19:38:00;23.80;56.90
12089;DHT22;6107;49.078;8.578;2022-08-24T19:40:26;23.90;57.00
12089;DHT22;6107;49.078;8.578;2022-08-24T19:42:52;24.20;57.00
12089;DHT22;6107;49.078;8.578;2022-08-24T19:45:22;24.30;56.90
12089;DHT22;6107;49.078;8.578;2022-08-24T19:48:07;24.60;56.70
12089;DHT22;6107;49.078;8.578;2022-08-24T19:50:34;24.50;57.00
12089;DHT22;6107;49.078;8.578;2022-08-24T19:53:00;24.20;56.90
12089;DHT22;6107;49.078;8.578;2022-08-24T19:55:26;23.80;57.60
12089;DHT22;6107;49.078;8.578;2022-08-24T19:57:54;23.70;58.20